Time;durP1;ratioP1;P1;durP2;ratioP2;P2;SDS_P1;SDS_P2;PMS_P1;PMS_P2;Temp;Humidity;BMP_temperature;BMP_pressure;BME280_temperature;BME280_humidity;BME280_pressure;Samples;Min_cycle;Max_cycle;Signal;HPM_P1;HPM_P2
2022/07/31 00:01:40;;;;;;;5.53;5.13;;;;;;;20.07;69.56;156522.94;5072409;28;20438;-75
2022/07/31 00:04:07;;;;;;;5.63;5.23;;;;;;;20.03;68.11;156513.88;5072043;28;20458;-75
2022/07/31 00:06:35;;;;;;;4.87;4.47;;;;;;;20.02;67.03;156509.91;5071057;28;20478;-75
2022/07/31 00:09:02;;;;;;;5.60;5.03;;;;;;;20.01;66.76;156507.34;5073996;28;20529;-75
2022/07/31 00:11:28;;;;;;;5.23;4.83;;;;;;;19.99;68.92;156502.09;5106129;28;20437;-75
2022/07/31 00:13:55;;;;;;;5.40;5.00;;;;;;;19.93;67.95;156486.47;5072110;28;20875;-75
2022/07/31 00:16:22;;;;;;;5.57;5.17;;;;;;;19.89;68.16;156476.03;5071213;28;20450;-75
2022/07/31 00:18:49;;;;;;;4.37;3.97;;;;;;;19.85;61.85;156465.63;5072067;28;20483;-76
2022/07/31 00:21:15;;;;;;;5.73;5.13;;;;;;;19.99;60.39;156503.41;5103466;28;20454;-75
2022/07/31 00:23:44;;;;;;;5.00;4.60;;;;;;;20.03;59.79;156512.53;5071720;28;20446;-75
2022/07/31 00:26:11;;;;;;;4.50;4.10;;;;;;;20.00;61.88;156504.72;5072295;28;20426;-75
2022/07/31 00:28:37;;;;;;;5.50;5.00;;;;;;;19.95;61.89;156491.69;5055795;28;20468;-76
2022/07/31 00:31:04;;;;;;;5.40;5.00;;;;;;;19.84;67.16;156463.00;5054206;28;20509;-75
2022/07/31 00:33:31;;;;;;;5.20;4.37;;;;;;;19.69;67.06;156423.88;5104763;28;20485;-76
2022/07/31 00:35:58;;;;;;;5.60;5.03;;;;;;;19.59;68.05;156397.81;5073222;28;20426;-75
2022/07/31 00:38:25;;;;;;;5.50;5.00;;;;;;;19.55;67.64;156388.69;5073090;28;20446;-75
2022/07/31 00:40:54;;;;;;;5.37;4.97;;;;;;;19.49;67.50;156373.03;5069559;28;20458;-75
2022/07/31 00:43:21;;;;;;;5.03;4.63;;;;;;;19.44;66.35;156361.31;5071404;28;20880;-75
2022/07/31 00:45:49;;;;;;;5.60;5.17;;;;;;;19.45;65.45;156362.63;5073296;28;20520;-75
2022/07/31 00:48:16;;;;;;;5.63;5.23;;;;;;;19.44;64.34;156361.31;5071073;28;21000;-75
2022/07/31 00:50:42;;;;;;;5.10;4.70;;;;;;;19.44;65.24;156361.31;5070921;28;20550;-76
2022/07/31 00:53:10;;;;;;;4.90;4.50;;;;;;;19.42;66.60;156356.09;5072733;28;20898;-76
2022/07/31 00:55:37;;;;;;;5.80;5.37;;;;;;;19.40;65.56;156350.91;5087576;28;20451;-75
2022/07/31 00:58:05;;;;;;;5.83;5.37;;;;;;;19.38;64.99;156345.66;5050814;28;20447;-75
2022/07/31 01:00:32;;;;;;;5.90;5.40;;;;;;;19.36;65.94;156339.09;5069645;28;20935;-77
2022/07/31 01:02:59;;;;;;;6.23;5.73;;;;;;;19.32;69.64;156328.69;5071990;28;20851;-75
2022/07/31 01:05:25;;;;;;;6.57;5.97;;;;;;;19.27;70.43;156315.66;5071193;28;20486;-75
2022/07/31 01:07:52;;;;;;;6.27;5.73;;;;;;;19.21;72.55;156301.31;5070673;28;20931;-76
2022/07/31 01:10:25;;;;;;;6.47;5.87;;;;;;;19.14;72.66;156281.78;5071167;28;20442;-76
2022/07/31 01:12:55;;;;;;;7.03;6.43;;;;;;;19.10;72.50;156271.31;5103712;28;20617;-76
2022/07/31 01:15:24;;;;;;;6.73;6.13;;;;;;;19.11;70.64;156273.94;5070950;28;20855;-76
2022/07/31 01:17:52;;;;;;;6.97;6.37;;;;;;;19.12;69.41;156277.84;5072860;28;20877;-75
2022/07/31 01:20:19;;;;;;;6.60;6.10;;;;;;;19.08;69.85;156267.44;5062288;28;20485;-76
2022/07/31 01:22:56;;;;;;;6.60;6.10;;;;;;;19.03;70.11;156254.41;5070311;28;21055;-76
2022/07/31 01:25:36;;;;;;;6.77;6.17;;;;;;;19.04;69.96;156256.97;5053903;28;20545;-76
2022/07/31 01:28:19;;;;;;;7.00;6.37;;;;;;;19.02;69.09;156251.78;5054120;28;20511;-76
2022/07/31 01:30:52;;;;;;;6.90;6.40;;;;;;;18.99;69.87;156243.97;5052768;28;20474;-76
2022/07/31 01:33:22;;;;;;;7.40;6.80;;;;;;;18.92;69.95;156225.72;5084807;28;20957;-76
2022/07/31 01:35:52;;;;;;;7.73;6.53;;;;;;;18.89;70.94;156216.59;5070722;28;20434;-76
2022/07/31 01:38:23;;;;;;;6.87;6.27;;;;;;;18.87;72.04;156212.72;5087872;28;20455;-76
2022/07/31 01:40:56;;;;;;;6.87;6.27;;;;;;;18.79;71.73;156191.84;5086713;28;20454;-76
2022/07/31 01:43:26;;;;;;;6.70;6.17;;;;;;;18.74;71.93;156178.84;5054131;28;20957;-76
2022/07/31 01:45:56;;;;;;;7.63;6.67;;;;;;;18.71;73.25;156171.00;5053801;28;20541;-75
2022/07/31 01:48:26;;;;;;;7.50;6.90;;;;;;;18.64;75.69;156152.75;5104154;28;20503;-74
2022/07/31 01:50:55;;;;;;;7.60;7.00;;;;;;;18.62;75.71;156147.53;5052593;28;20454;-74
2022/07/31 01:53:23;;;;;;;7.70;7.10;;;;;;;18.59;75.86;156141.03;5053946;28;20570;-75
2022/07/31 01:55:51;;;;;;;7.47;6.77;;;;;;;18.59;75.07;156141.03;5071643;28;20786;-74
2022/07/31 01:58:21;;;;;;;7.87;7.17;;;;;;;18.55;76.02;156129.31;5052583;28;20864;-75
2022/07/31 02:00:49;;;;;;;9.07;8.27;;;;;;;18.54;75.37;156128.00;5033303;28;20435;-75
2022/07/31 02:03:17;;;;;;;7.40;6.87;;;;;;;18.54;74.78;156128.00;5051795;28;20461;-75
2022/07/31 02:05:45;;;;;;;8.10;7.40;;;;;;;18.54;75.49;156126.69;5064626;28;20534;-75
2022/07/31 02:08:13;;;;;;;6.90;6.40;;;;;;;18.54;74.95;156128.00;5070146;28;20442;-76
2022/07/31 02:10:45;;;;;;;8.23;7.53;;;;;;;18.54;74.50;156126.69;5051333;28;20454;-76
2022/07/31 02:13:13;;;;;;;7.50;7.00;;;;;;;18.51;74.16;156120.19;5087049;28;20833;-76
2022/07/31 02:15:40;;;;;;;7.37;6.77;;;;;;;18.51;74.10;156118.88;5086730;28;20543;-76
2022/07/31 02:18:07;;;;;;;8.10;7.50;;;;;;;18.51;74.98;156118.88;5051929;28;20569;-75
2022/07/31 02:20:36;;;;;;;8.30;7.60;;;;;;;18.50;75.21;156117.59;5069435;28;20442;-75
2022/07/31 02:23:03;;;;;;;8.27;7.57;;;;;;;18.53;75.62;156124.13;5100164;28;20905;-75
2022/07/31 02:25:30;;;;;;;7.97;7.27;;;;;;;18.52;74.54;156121.50;5073207;28;20474;-74
2022/07/31 02:28:03;;;;;;;8.70;7.77;;;;;;;18.49;74.16;156114.97;5081687;28;20500;-75
2022/07/31 02:30:32;;;;;;;9.07;8.27;;;;;;;18.48;75.17;156111.09;5100455;28;20454;-74
2022/07/31 02:32:59;;;;;;;7.70;7.10;;;;;;;18.44;75.41;156101.91;5050838;28;20484;-74
2022/07/31 02:35:26;;;;;;;8.97;8.27;;;;;;;18.45;75.87;156104.53;5101077;28;20995;-75
2022/07/31 02:37:55;;;;;;;8.60;7.80;;;;;;;18.42;75.52;156096.72;5066812;28;20458;-76
2022/07/31 02:40:24;;;;;;;8.07;7.37;;;;;;;18.41;75.26;156094.09;5065178;28;20447;-76
2022/07/31 02:42:51;;;;;;;8.90;8.10;;;;;;;18.38;74.48;156086.28;5067148;28;20942;-76
2022/07/31 02:45:19;;;;;;;8.43;7.73;;;;;;;18.36;74.83;156079.75;5100271;28;20521;-76
2022/07/31 02:47:47;;;;;;;8.90;8.10;;;;;;;18.34;75.11;156074.56;5047019;28;20556;-76
2022/07/31 02:50:17;;;;;;;8.93;8.03;;;;;;;18.33;75.26;156071.94;5084434;28;20438;-75
2022/07/31 02:52:45;;;;;;;8.17;7.50;;;;;;;18.28;75.16;156060.22;5084525;28;20449;-76
2022/07/31 02:55:13;;;;;;;8.80;8.00;;;;;;;18.24;74.69;156049.84;5050478;28;20462;-75
2022/07/31 02:57:40;;;;;;;8.43;7.73;;;;;;;18.23;75.11;156048.53;5065653;28;20458;-76
2022/07/31 03:00:21;;;;;;;8.50;7.80;;;;;;;18.23;75.22;156048.53;5050133;28;20450;-75
2022/07/31 03:02:49;;;;;;;9.97;9.10;;;;;;;18.23;75.76;156048.53;5068613;28;20921;-76
2022/07/31 03:05:16;;;;;;;8.90;8.13;;;;;;;18.19;76.03;156038.09;5050490;28;20445;-75
2022/07/31 03:07:43;;;;;;;8.53;7.83;;;;;;;18.20;77.86;156039.38;5046458;28;20469;-76
2022/07/31 03:10:11;;;;;;;8.60;7.90;;;;;;;18.16;77.10;156030.25;5083890;28;20445;-76
2022/07/31 03:12:46;;;;;;;8.60;7.80;;;;;;;18.11;76.96;156015.94;5050834;28;21038;-75
2022/07/31 03:15:15;;;;;;;8.83;8.13;;;;;;;18.07;76.82;156006.84;5049221;28;20465;-75
2022/07/31 03:17:44;;;;;;;8.97;8.17;;;;;;;18.07;76.91;156005.53;5083412;28;20454;-76
2022/07/31 03:20:14;;;;;;;7.53;6.70;;;;;;;18.06;76.54;156004.22;5042093;28;20994;-76
2022/07/31 03:22:41;;;;;;;8.57;7.90;;;;;;;18.00;75.97;155988.59;5049502;28;20975;-75
2022/07/31 03:25:08;;;;;;;8.47;7.77;;;;;;;17.92;75.63;155967.78;5099027;28;20445;-75
2022/07/31 03:27:35;;;;;;;8.77;8.07;;;;;;;17.89;76.43;155959.97;5047468;28;20880;-75
2022/07/31 03:30:05;;;;;;;8.20;7.40;;;;;;;17.88;75.96;155956.03;5066047;28;20913;-76
2022/07/31 03:32:34;;;;;;;7.70;7.10;;;;;;;17.85;76.48;155948.22;5100749;28;20450;-76
2022/07/31 03:35:01;;;;;;;8.13;7.33;;;;;;;17.84;76.24;155946.97;5066340;28;20878;-76
2022/07/31 03:37:28;;;;;;;8.87;8.07;;;;;;;17.79;76.58;155933.91;5066806;28;20545;-75
2022/07/31 03:39:55;;;;;;;7.97;7.37;;;;;;;17.76;76.57;155926.13;5099873;28;20442;-76
2022/07/31 03:42:22;;;;;;;8.70;7.80;;;;;;;17.75;77.50;155923.50;5066495;28;20513;-76
2022/07/31 03:44:49;;;;;;;8.40;7.80;;;;;;;17.74;77.07;155920.88;5063888;28;20450;-76
2022/07/31 03:47:18;;;;;;;7.60;7.00;;;;;;;17.76;77.15;155924.81;5065113;28;20461;-75
2022/07/31 03:49:45;;;;;;;8.60;7.40;;;;;;;17.76;77.49;155926.13;5065506;28;20529;-74
2022/07/31 03:52:12;;;;;;;8.57;7.40;;;;;;;17.76;78.10;155924.81;5102405;28;20449;-74
2022/07/31 03:54:39;;;;;;;8.40;7.70;;;;;;;17.76;78.20;155926.13;5101661;28;20546;-74
2022/07/31 03:57:18;;;;;;;10.30;8.40;;;;;;;17.79;78.69;155932.63;5051974;28;20442;-74
2022/07/31 03:59:46;;;;;;;8.47;7.87;;;;;;;17.81;78.63;155939.16;5069905;28;20462;-74
2022/07/31 04:02:13;;;;;;;8.57;7.77;;;;;;;17.84;78.15;155945.66;5070417;28;20442;-74
2022/07/31 04:04:44;;;;;;;8.03;7.33;;;;;;;17.80;78.30;155936.53;5051762;28;20457;-76
2022/07/31 04:07:11;;;;;;;10.43;9.53;;;;;;;17.79;78.25;155932.63;5054264;28;20450;-76
2022/07/31 04:09:38;;;;;;;8.53;7.83;;;;;;;17.81;79.09;155939.16;5105242;28;20438;-76
2022/07/31 04:12:06;;;;;;;9.33;8.43;;;;;;;17.76;79.44;155926.13;5054762;28;20544;-75
2022/07/31 04:14:33;;;;;;;9.73;8.83;;;;;;;17.75;78.30;155923.50;5088014;28;20561;-76
2022/07/31 04:16:59;;;;;;;8.93;8.23;;;;;;;17.76;77.75;155926.13;5072977;28;20430;-75
2022/07/31 04:19:29;;;;;;;8.17;7.47;;;;;;;17.78;79.40;155930.00;5071804;28;20478;-76
2022/07/31 04:21:58;;;;;;;8.90;8.07;;;;;;;17.76;80.81;155926.13;5070981;28;20450;-76
2022/07/31 04:24:25;;;;;;;8.50;7.83;;;;;;;17.76;80.02;155926.13;5069609;28;20453;-75
2022/07/31 04:27:10;;;;;;;9.40;8.60;;;;;;;17.78;78.96;155931.31;5073513;28;20532;-75
2022/07/31 04:29:41;;;;;;;8.43;7.63;;;;;;;17.80;78.69;155935.22;5073240;28;20511;-74
2022/07/31 04:32:08;;;;;;;8.87;7.97;;;;;;;17.80;77.35;155936.53;5054794;28;20453;-74
2022/07/31 04:34:41;;;;;;;8.23;7.53;;;;;;;17.79;77.99;155933.91;5087905;28;20461;-74
2022/07/31 04:37:09;;;;;;;8.60;7.83;;;;;;;17.75;80.32;155923.50;5087901;28;20442;-74
2022/07/31 04:39:35;;;;;;;7.97;7.23;;;;;;;17.72;78.57;155914.38;5054674;28;20445;-74
2022/07/31 04:42:02;;;;;;;8.27;7.60;;;;;;;17.75;78.42;155923.50;5084519;28;20576;-74
2022/07/31 04:44:31;;;;;;;7.80;7.10;;;;;;;17.77;81.06;155928.69;5051947;28;20433;-74
2022/07/31 04:46:59;;;;;;;8.17;7.57;;;;;;;17.78;77.77;155930.00;5057810;28;20963;-74
2022/07/31 04:49:26;;;;;;;8.33;7.70;;;;;;;17.86;79.48;155950.84;5088788;28;20442;-74
2022/07/31 04:51:53;;;;;;;12.30;8.20;;;;;;;17.95;78.02;155975.56;5087910;28;20454;-74
2022/07/31 04:54:21;;;;;;;8.30;7.60;;;;;;;18.04;77.95;155999.03;5070789;28;20602;-74
2022/07/31 04:56:48;;;;;;;8.37;7.67;;;;;;;18.15;78.43;156027.69;5087502;28;20552;-74
2022/07/31 04:59:18;;;;;;;8.03;7.33;;;;;;;18.32;80.02;156070.63;5072100;28;20920;-74
2022/07/31 05:01:47;;;;;;;8.70;8.00;;;;;;;18.57;76.18;156134.53;5068731;28;20807;-74
2022/07/31 05:04:17;;;;;;;7.23;6.60;;;;;;;18.85;75.43;156208.78;5088213;28;20805;-74
2022/07/31 05:06:45;;;;;;;8.10;7.30;;;;;;;19.01;74.95;156247.91;5054519;28;20458;-74
2022/07/31 05:09:15;;;;;;;7.77;7.20;;;;;;;19.04;74.46;156255.66;5087483;28;20451;-76
2022/07/31 05:11:44;;;;;;;7.77;7.17;;;;;;;19.20;73.71;156297.38;5052535;28;20546;-75
2022/07/31 05:14:13;;;;;;;7.80;7.20;;;;;;;19.53;72.97;156382.16;5070316;28;20474;-75
2022/07/31 05:16:40;;;;;;;7.30;6.70;;;;;;;19.83;71.96;156460.41;5069644;28;20548;-75
2022/07/31 05:19:07;;;;;;;7.80;7.10;;;;;;;20.23;71.42;156563.38;5069980;28;20473;-75
2022/07/31 05:21:46;;;;;;;7.53;6.70;;;;;;;20.52;70.04;156639.06;5069340;28;20584;-76
2022/07/31 05:24:48;;;;;;;7.60;7.00;;;;;;;20.73;68.70;156692.63;5007990;28;20455;-75
2022/07/31 05:27:17;;;;;;;6.97;6.37;;;;;;;20.74;66.39;156695.19;5038500;28;20447;-75
2022/07/31 05:29:44;;;;;;;7.27;6.60;;;;;;;20.68;66.79;156679.56;5064635;28;20461;-75
2022/07/31 05:32:11;;;;;;;7.00;6.40;;;;;;;20.62;65.74;156665.22;5087093;28;20832;-75
2022/07/31 05:34:38;;;;;;;6.60;6.10;;;;;;;20.63;66.80;156667.78;5053100;28;20493;-75
2022/07/31 05:37:05;;;;;;;6.80;6.20;;;;;;;20.56;68.09;156650.84;5087403;28;20477;-76
2022/07/31 05:39:35;;;;;;;8.20;6.70;;;;;;;20.42;67.81;156614.31;5085365;28;20462;-75
2022/07/31 05:42:41;;;;;;;7.87;6.63;;;;;;;20.28;68.10;156577.78;5029660;28;20798;-75
2022/07/31 05:45:31;;;;;;;7.10;6.40;;;;;;;20.27;69.49;156575.19;5018607;28;20455;-75
2022/07/31 05:47:58;;;;;;;9.33;7.87;;;;;;;20.16;68.52;156546.44;5050070;28;20454;-76
2022/07/31 05:50:25;;;;;;;7.87;7.23;;;;;;;20.08;69.32;156525.59;5071136;28;20426;-76
2022/07/31 05:52:52;;;;;;;7.50;6.90;;;;;;;20.03;70.31;156512.53;5078930;28;20540;-75
2022/07/31 05:55:54;;;;;;;7.30;6.80;;;;;;;19.97;69.85;156498.19;5007592;28;20472;-76
2022/07/31 05:58:34;;;;;;;7.30;6.70;;;;;;;19.94;69.75;156489.06;5057624;28;20457;-75
2022/07/31 06:01:02;;;;;;;6.73;6.13;;;;;;;19.99;70.51;156502.09;5100468;28;20440;-75
2022/07/31 06:03:34;;;;;;;6.97;6.40;;;;;;;19.99;70.12;156503.41;5074779;28;20469;-75
2022/07/31 06:06:04;;;;;;;7.77;7.17;;;;;;;20.03;71.40;156512.53;5070042;28;20430;-75
2022/07/31 06:08:32;;;;;;;7.60;6.80;;;;;;;20.11;70.14;156532.09;5051461;28;20519;-76
2022/07/31 06:11:00;;;;;;;7.57;6.97;;;;;;;20.19;69.89;156554.28;5068642;28;20849;-75
2022/07/31 06:13:29;;;;;;;7.10;6.50;;;;;;;20.22;70.33;156562.13;5084243;28;20524;-75
2022/07/31 06:15:57;;;;;;;7.37;6.83;;;;;;;20.27;70.10;156573.88;5067962;28;20553;-76
2022/07/31 06:18:23;;;;;;;7.63;6.93;;;;;;;20.26;70.24;156571.25;5051301;28;20538;-75
2022/07/31 06:20:51;;;;;;;8.50;7.47;;;;;;;20.29;70.80;156579.09;5083348;28;20816;-75
2022/07/31 06:23:18;;;;;;;6.90;6.40;;;;;;;20.28;70.13;156577.78;5070204;28;20870;-75
2022/07/31 06:25:45;;;;;;;6.90;6.20;;;;;;;20.32;70.17;156588.25;5068351;28;20499;-75
2022/07/31 06:28:11;;;;;;;8.10;7.10;;;;;;;20.27;72.21;156575.19;5085504;28;20438;-75
2022/07/31 06:30:40;;;;;;;7.27;6.67;;;;;;;20.28;71.24;156577.78;5085960;28;20800;-76
2022/07/31 06:33:08;;;;;;;9.10;7.43;;;;;;;20.30;71.13;156583.03;5069275;28;20464;-75
2022/07/31 06:35:37;;;;;;;7.23;6.63;;;;;;;20.31;71.30;156584.31;5050814;28;20481;-75
2022/07/31 06:38:30;;;;;;;6.93;6.40;;;;;;;20.31;72.63;156585.63;5086517;28;20465;-76
2022/07/31 06:41:43;;;;;;;6.33;5.93;;;;;;;20.30;71.41;156581.72;5104258;28;20502;-75
2022/07/31 06:44:21;;;;;;;7.57;6.97;;;;;;;20.41;70.88;156610.44;5102588;28;20441;-75
2022/07/31 06:47:15;;;;;;;6.80;6.30;;;;;;;20.51;71.85;156637.81;5071104;28;20458;-75
2022/07/31 06:49:55;;;;;;;7.30;6.60;;;;;;;20.62;69.93;156666.47;5070365;28;20625;-75
2022/07/31 06:52:26;;;;;;;6.70;6.10;;;;;;;20.76;69.90;156701.72;5069563;28;20442;-75
2022/07/31 06:54:53;;;;;;;6.17;5.67;;;;;;;20.81;69.34;156713.47;5080167;28;20470;-75
2022/07/31 06:57:20;;;;;;;6.63;6.03;;;;;;;20.84;68.91;156721.28;5069741;28;20497;-76
2022/07/31 06:59:47;;;;;;;6.60;6.00;;;;;;;20.88;69.33;156731.75;5089154;28;20437;-75
2022/07/31 07:02:14;;;;;;;6.57;5.87;;;;;;;20.90;68.40;156738.25;5073107;28;20448;-75
2022/07/31 07:04:41;;;;;;;7.07;6.40;;;;;;;20.96;67.60;156752.63;5051686;28;20450;-76
2022/07/31 07:07:10;;;;;;;6.17;5.67;;;;;;;21.00;68.80;156764.34;5052522;28;20492;-75
2022/07/31 07:09:37;;;;;;;6.57;5.97;;;;;;;21.08;69.00;156785.28;5052093;28;20840;-75
2022/07/31 07:12:04;;;;;;;6.87;6.37;;;;;;;21.20;67.43;156815.31;5069443;28;20540;-76
2022/07/31 07:14:31;;;;;;;6.50;5.90;;;;;;;21.29;66.29;156838.78;5068248;28;20805;-76
2022/07/31 07:17:03;;;;;;;8.70;6.60;;;;;;;21.41;66.69;156870.13;5085808;28;20458;-75
2022/07/31 07:19:30;;;;;;;7.77;7.17;;;;;;;21.63;66.92;156926.28;5068819;28;20442;-75
2022/07/31 07:21:57;;;;;;;6.40;5.80;;;;;;;21.88;66.74;156990.25;5051059;28;20537;-76
2022/07/31 07:24:25;;;;;;;7.00;6.30;;;;;;;22.28;65.78;157094.75;5069405;28;20445;-75
2022/07/31 07:27:12;;;;;;;6.20;5.60;;;;;;;22.64;64.53;157188.81;5072345;28;20797;-75
2022/07/31 07:29:39;;;;;;;6.97;6.37;;;;;;;22.88;62.99;157250.22;5074434;28;20537;-76
2022/07/31 07:32:06;;;;;;;7.80;6.30;;;;;;;22.93;62.87;157264.59;5096545;28;20699;-76
2022/07/31 07:34:33;;;;;;;7.93;5.87;;;;;;;23.01;62.63;157284.19;5071335;28;20959;-76
2022/07/31 07:37:02;;;;;;;6.23;5.73;;;;;;;23.07;61.80;157299.88;5072781;28;20437;-76
2022/07/31 07:39:33;;;;;;;5.80;5.40;;;;;;;23.25;61.54;157345.63;5072693;28;20932;-76
2022/07/31 07:42:00;;;;;;;6.43;5.93;;;;;;;23.35;60.25;157371.78;5072431;28;20454;-76
2022/07/31 07:44:27;;;;;;;8.47;6.10;;;;;;;23.34;58.30;157369.16;5072605;28;20446;-75
2022/07/31 07:46:53;;;;;;;5.80;5.30;;;;;;;23.45;58.99;157397.97;5071593;28;20453;-76
2022/07/31 07:49:21;;;;;;;6.30;5.80;;;;;;;23.42;60.11;157390.13;5055741;28;20438;-76
2022/07/31 07:52:06;;;;;;;6.53;5.93;;;;;;;23.52;60.54;157416.25;5085788;28;20461;-75
2022/07/31 07:54:34;;;;;;;5.60;5.20;;;;;;;23.51;58.51;157414.94;5106216;28;20811;-76
2022/07/31 07:57:24;;;;;;;6.50;5.90;;;;;;;23.59;59.42;157435.84;5073325;28;20445;-76
2022/07/31 08:00:11;;;;;;;6.73;6.13;;;;;;;23.45;58.00;157399.28;5110291;27;20434;-76
2022/07/31 08:02:44;;;;;;;6.43;5.93;;;;;;;23.53;58.32;157420.22;5073973;28;20442;-76
2022/07/31 08:05:12;;;;;;;6.40;5.90;;;;;;;23.59;58.56;157434.53;5088102;28;20458;-76
2022/07/31 08:07:42;;;;;;;5.70;5.30;;;;;;;23.54;60.35;157421.47;5072343;28;20481;-76
2022/07/31 08:10:30;;;;;;;5.90;5.50;;;;;;;23.56;61.20;157426.75;5087277;28;20450;-76
2022/07/31 08:13:06;;;;;;;6.27;5.77;;;;;;;23.67;61.45;157454.19;5038327;28;20976;-75
2022/07/31 08:15:58;;;;;;;6.20;5.70;;;;;;;23.87;58.13;157507.78;5071182;28;20488;-76
2022/07/31 08:18:35;;;;;;;6.13;5.70;;;;;;;23.72;58.03;157468.56;5055100;28;20459;-76
2022/07/31 08:21:01;;;;;;;7.13;5.97;;;;;;;23.70;58.55;157462.00;5054502;28;20442;-76
2022/07/31 08:23:28;;;;;;;6.40;5.90;;;;;;;23.69;59.28;157459.41;5071298;28;20452;-75
2022/07/31 08:25:56;;;;;;;6.73;5.77;;;;;;;23.73;58.50;157471.16;5088196;28;20487;-76
2022/07/31 08:28:24;;;;;;;6.87;6.20;;;;;;;23.78;58.76;157484.22;5055195;28;20500;-76
2022/07/31 08:30:51;;;;;;;11.50;5.90;;;;;;;23.63;60.67;157445.03;5069323;28;21006;-76
2022/07/31 08:33:20;;;;;;;6.50;5.93;;;;;;;23.77;61.73;157480.31;5071763;28;20515;-76
2022/07/31 08:35:55;;;;;;;5.90;5.40;;;;;;;24.10;60.73;157567.97;5054449;28;20462;-75
2022/07/31 08:38:21;;;;;;;6.37;5.77;;;;;;;24.45;59.80;157656.91;5105143;28;20537;-76
2022/07/31 08:41:08;;;;;;;6.50;6.00;;;;;;;24.80;58.27;157748.53;5053971;28;20435;-76
2022/07/31 08:43:35;;;;;;;5.60;5.20;;;;;;;25.07;58.31;157819.16;5051471;28;20540;-76
2022/07/31 08:46:03;;;;;;;6.97;6.37;;;;;;;25.38;57.64;157900.31;5062238;28;20431;-76
2022/07/31 08:48:36;;;;;;;6.57;6.07;;;;;;;25.57;54.96;157947.47;5067691;28;20807;-76
2022/07/31 08:51:04;;;;;;;5.70;5.30;;;;;;;26.05;55.26;158073.16;5071772;28;20839;-76
2022/07/31 08:54:06;;;;;;;5.00;4.57;;;;;;;26.30;52.00;158137.34;5063188;28;20450;-76
2022/07/31 08:56:35;;;;;;;5.30;4.90;;;;;;;27.00;51.61;158319.47;5054368;28;20897;-76
2022/07/31 08:59:02;;;;;;;5.83;4.67;;;;;;;26.91;49.57;158297.19;5054031;28;20457;-76
2022/07/31 09:01:29;;;;;;;5.43;4.97;;;;;;;26.69;48.95;158238.22;5042439;28;20447;-76
2022/07/31 09:03:56;;;;;;;6.03;5.33;;;;;;;26.82;48.01;158273.59;5070965;28;20499;-76
2022/07/31 09:06:23;;;;;;;5.20;4.67;;;;;;;27.26;47.77;158386.28;5071892;28;20426;-76
2022/07/31 09:08:50;;;;;;;4.57;4.27;;;;;;;28.00;44.53;158580.31;5102955;28;20461;-76
2022/07/31 09:11:17;;;;;;;4.80;4.50;;;;;;;27.71;43.66;158505.59;5072489;28;20449;-76
2022/07/31 09:13:57;;;;;;;5.20;4.70;;;;;;;27.51;45.23;158453.16;5071361;28;20472;-76
2022/07/31 09:16:45;;;;;;;4.97;4.60;;;;;;;27.21;43.79;158374.50;5087988;28;20469;-76
2022/07/31 09:19:13;;;;;;;5.10;4.70;;;;;;;26.94;44.77;158303.75;5084182;28;20509;-83
2022/07/31 09:21:40;;;;;;;5.10;4.70;;;;;;;26.77;46.43;158259.19;5052258;28;20532;-83
2022/07/31 09:24:09;;;;;;;4.37;4.07;;;;;;;26.67;47.92;158232.94;5053483;28;20442;-83
2022/07/31 09:26:36;;;;;;;4.43;4.03;;;;;;;26.87;46.10;158285.44;5086687;28;20434;-83
2022/07/31 09:29:07;;;;;;;5.10;4.70;;;;;;;27.08;47.92;158340.44;5070585;28;20797;-83
2022/07/31 09:31:35;;;;;;;5.53;5.03;;;;;;;27.09;48.84;158343.03;5053150;28;20449;-84
2022/07/31 09:34:26;;;;;;;5.67;5.17;;;;;;;27.79;46.73;158525.25;5069649;28;20924;-83
2022/07/31 09:37:11;;;;;;;4.63;4.33;;;;;;;27.63;47.58;158484.63;5052394;28;21069;-84
2022/07/31 09:40:04;;;;;;;5.73;5.33;;;;;;;27.54;45.81;158459.69;5050833;28;20439;-84
2022/07/31 09:42:50;;;;;;;6.40;5.80;;;;;;;27.34;47.41;158408.56;5090351;28;20436;-84
2022/07/31 09:45:24;;;;;;;5.57;4.67;;;;;;;27.94;46.03;158563.25;5070488;28;20460;-83
2022/07/31 09:48:07;;;;;;;5.03;4.63;;;;;;;28.28;43.29;158652.44;5051491;28;20863;-84
2022/07/31 09:50:34;;;;;;;4.63;4.23;;;;;;;28.21;44.12;158635.44;5069709;28;20545;-84
2022/07/31 09:53:01;;;;;;;5.23;4.37;;;;;;;28.39;43.46;158682.63;5068792;28;20450;-84
2022/07/31 09:55:30;;;;;;;5.90;4.83;;;;;;;28.05;43.20;158592.16;5087342;28;20477;-84
2022/07/31 09:57:58;;;;;;;4.60;4.30;;;;;;;27.69;45.00;158499.06;5087045;28;20430;-84
2022/07/31 10:00:31;;;;;;;4.63;4.23;;;;;;;27.82;45.48;158531.81;5070556;28;20528;-84
2022/07/31 10:02:57;;;;;;;6.10;4.00;;;;;;;27.53;43.73;158458.44;5086705;28;20471;-83
2022/07/31 10:05:27;;;;;;;4.77;4.47;;;;;;;27.68;45.22;158497.75;5063931;28;20450;-84
2022/07/31 10:07:58;;;;;;;5.23;4.43;;;;;;;27.89;43.80;158551.47;5053445;28;20438;-84
2022/07/31 10:10:45;;;;;;;4.87;4.50;;;;;;;28.42;43.35;158689.19;5087321;28;20537;-84
2022/07/31 10:13:40;;;;;;;4.70;4.40;;;;;;;28.12;42.39;158610.50;5052307;28;20489;-84
2022/07/31 10:16:08;;;;;;;4.60;4.23;;;;;;;28.36;44.26;158673.44;5070348;28;20466;-84
2022/07/31 10:18:46;;;;;;;5.20;4.70;;;;;;;28.08;45.04;158600.03;5100968;28;20445;-84
2022/07/31 10:21:27;;;;;;;5.83;4.70;;;;;;;27.75;44.42;158516.06;5086798;28;20445;-83
2022/07/31 10:24:08;;;;;;;5.80;5.30;;;;;;;27.24;46.38;158382.38;5045949;28;20632;-83
2022/07/31 10:26:35;;;;;;;5.07;4.67;;;;;;;27.02;46.80;158324.72;5038828;28;20442;-84
2022/07/31 10:29:02;;;;;;;5.20;4.80;;;;;;;27.34;45.87;158408.56;5060954;28;20602;-84
2022/07/31 10:31:31;;;;;;;4.80;4.50;;;;;;;27.55;44.83;158462.34;5086570;28;20528;-84
2022/07/31 10:33:58;;;;;;;5.63;5.03;;;;;;;27.25;44.86;158384.97;5052541;28;20450;-84
2022/07/31 10:37:09;;;;;;;5.10;4.70;;;;;;;27.20;45.05;158371.88;5006697;28;20475;-84
2022/07/31 10:40:02;;;;;;;5.03;4.63;;;;;;;27.10;45.86;158347.00;5008313;28;20488;-85
2022/07/31 10:42:42;;;;;;;4.87;4.47;;;;;;;27.08;43.97;158340.44;5055201;28;20454;-84
2022/07/31 10:45:12;;;;;;;4.53;4.13;;;;;;;27.06;44.38;158335.16;5069086;28;20461;-84
2022/07/31 10:48:11;;;;;;;4.70;4.40;;;;;;;27.27;44.45;158388.94;5049625;28;20442;-84
2022/07/31 10:51:02;;;;;;;4.77;4.37;;;;;;;27.65;43.39;158488.53;5102329;28;20826;-84
2022/07/31 10:54:05;;;;;;;5.03;4.63;;;;;;;27.38;44.04;158419.03;5067765;28;20457;-84
2022/07/31 10:56:50;;;;;;;5.07;4.77;;;;;;;26.98;44.11;158314.25;5066113;28;20515;-85
2022/07/31 10:59:37;;;;;;;4.70;4.40;;;;;;;26.84;44.87;158278.88;5067814;28;20464;-76
2022/07/31 11:02:33;;;;;;;5.50;5.10;;;;;;;26.97;43.67;158311.63;5071948;28;20976;-76
2022/07/31 11:05:27;;;;;;;5.03;4.67;;;;;;;26.98;44.75;158314.25;5062741;28;20453;-76
2022/07/31 11:08:26;;;;;;;5.33;4.83;;;;;;;26.61;43.47;158218.53;5060414;28;20441;-76
2022/07/31 11:10:59;;;;;;;4.90;4.53;;;;;;;26.38;45.95;158158.31;5073025;28;20453;-74
2022/07/31 11:13:47;;;;;;;5.73;4.80;;;;;;;26.47;45.70;158183.22;5085015;28;20730;-75
2022/07/31 11:16:27;;;;;;;5.00;4.60;;;;;;;26.46;45.22;158180.56;5102950;28;20519;-74
2022/07/31 11:19:12;;;;;;;5.33;4.60;;;;;;;26.66;43.68;158231.69;5063438;28;20537;-74
2022/07/31 11:21:42;;;;;;;5.23;4.83;;;;;;;26.43;43.53;158172.72;5092602;28;20445;-74
2022/07/31 11:24:13;;;;;;;4.53;4.13;;;;;;;26.70;44.74;158240.81;5054374;28;20460;-74
2022/07/31 11:26:43;;;;;;;5.50;4.93;;;;;;;26.54;44.35;158201.53;5069929;28;20609;-74
2022/07/31 11:29:10;;;;;;;4.70;4.40;;;;;;;26.61;44.96;158218.53;5069572;28;20541;-74
2022/07/31 11:31:37;;;;;;;4.20;3.90;;;;;;;26.63;43.98;158222.50;5067780;28;20450;-74
2022/07/31 11:34:03;;;;;;;4.20;3.90;;;;;;;26.63;44.75;158225.09;5069652;28;20441;-74
2022/07/31 11:36:30;;;;;;;4.70;4.30;;;;;;;27.02;44.20;158324.72;5068280;28;20501;-76
2022/07/31 11:38:59;;;;;;;4.33;4.03;;;;;;;27.25;43.50;158384.97;5072241;28;20841;-74
2022/07/31 11:41:28;;;;;;;4.10;3.80;;;;;;;27.13;43.34;158354.88;5074290;28;20446;-76
2022/07/31 11:43:56;;;;;;;4.30;4.00;;;;;;;27.28;43.51;158392.84;5106983;28;20474;-76
2022/07/31 11:46:25;;;;;;;3.80;3.50;;;;;;;27.37;44.19;158416.44;5105369;28;20461;-74